createdAt,value
2018-01-01T00:00:16.161Z,5.30
2018-01-01T00:01:16.157Z,4.70
2018-01-01T00:02:16.146Z,5.00
2018-01-01T00:03:16.139Z,4.40
2018-01-01T00:04:16.132Z,4.50
2018-01-01T00:05:16.126Z,4.50
2018-01-01T00:06:16.117Z,3.70
2018-01-01T00:07:16.117Z,5.20
2018-01-01T00:08:16.112Z,3.80
2018-01-01T00:09:16.104Z,4.20
2018-01-01T00:10:16.099Z,4.00
2018-01-01T00:11:16.092Z,5.10
2018-01-01T00:12:16.081Z,3.90
2018-01-01T00:13:16.081Z,3.90
2018-01-01T00:14:16.067Z,4.20
2018-01-01T00:15:16.065Z,3.90
2018-01-01T00:16:16.055Z,4.60
2018-01-01T00:17:16.062Z,5.30
2018-01-01T00:18:16.053Z,5.50
2018-01-01T00:19:16.043Z,3.40
2018-01-01T00:20:16.048Z,4.60
2018-01-01T00:21:16.035Z,3.30
2018-01-01T00:22:16.023Z,3.10
2018-01-01T00:23:16.013Z,4.20
2018-01-01T00:24:16.013Z,3.00
2018-01-01T00:25:16.012Z,4.00
2018-01-01T00:26:16.024Z,3.40
2018-01-01T00:27:15.994Z,2.90
2018-01-01T00:28:15.983Z,3.50
2018-01-01T00:29:15.990Z,3.30
2018-01-01T00:30:15.973Z,3.10
2018-01-01T00:31:15.970Z,4.00
2018-01-01T00:32:15.958Z,4.70
2018-01-01T00:33:15.953Z,4.90
2018-01-01T00:34:15.949Z,3.40
2018-01-01T00:35:15.936Z,4.40
2018-01-01T00:36:15.948Z,4.20
2018-01-01T00:37:15.927Z,4.10
2018-01-01T00:38:15.934Z,5.20
2018-01-01T00:39:15.916Z,4.40
2018-01-01T00:40:15.941Z,4.00
2018-01-01T00:41:15.903Z,4.20
2018-01-01T00:42:15.900Z,4.20
2018-01-01T00:43:15.902Z,4.50
2018-01-01T00:44:15.903Z,5.90
2018-01-01T00:45:15.881Z,4.90
2018-01-01T00:46:15.887Z,4.00
2018-01-01T00:47:15.864Z,4.50
2018-01-01T00:48:15.861Z,4.50
2018-01-01T00:49:15.855Z,4.60
2018-01-01T00:50:15.873Z,4.80
2018-01-01T00:51:15.847Z,4.10
2018-01-01T00:52:15.838Z,3.90
2018-01-01T00:53:15.825Z,6.00
2018-01-01T00:54:15.823Z,5.40
2018-01-01T00:55:15.815Z,5.70
2018-01-01T00:56:15.825Z,5.60
2018-01-01T00:57:15.796Z,4.10
2018-01-01T00:58:15.799Z,5.90
2018-01-01T00:59:15.804Z,6.20
2018-01-01T01:00:15.792Z,5.80
2018-01-01T01:01:15.781Z,5.30
2018-01-01T01:02:15.774Z,6.10
2018-01-01T01:03:15.768Z,7.70
2018-01-01T01:04:15.757Z,7.50
2018-01-01T01:05:15.752Z,5.50
2018-01-01T01:06:15.751Z,6.40
2018-01-01T01:07:15.739Z,5.30
2018-01-01T01:08:15.759Z,5.40
2018-01-01T01:09:15.732Z,7.20
2018-01-01T01:10:15.726Z,6.30
2018-01-01T01:11:15.717Z,5.80
2018-01-01T01:12:15.719Z,6.30
2018-01-01T01:13:15.703Z,6.70
2018-01-01T01:14:15.738Z,7.00
2018-01-01T01:15:15.732Z,6.70
2018-01-01T01:16:15.685Z,7.70
2018-01-01T01:17:15.680Z,5.90
2018-01-01T01:18:15.674Z,7.10
2018-01-01T01:19:15.666Z,7.50
2018-01-01T01:20:15.659Z,7.40
2018-01-01T01:21:15.655Z,8.00
2018-01-01T01:22:15.647Z,8.50
2018-01-01T01:23:15.640Z,6.60
2018-01-01T01:24:15.635Z,8.30
2018-01-01T01:25:15.628Z,8.50
2018-01-01T01:26:15.624Z,8.00
2018-01-01T01:27:15.616Z,8.30
2018-01-01T01:28:15.609Z,8.60
2018-01-01T01:29:15.602Z,7.90
2018-01-01T01:30:15.596Z,7.50
2018-01-01T01:31:15.590Z,9.40
2018-01-01T01:32:15.586Z,8.20
2018-01-01T01:33:15.579Z,6.20
2018-01-01T01:34:15.575Z,8.90
2018-01-01T01:35:15.566Z,10.30
2018-01-01T01:36:15.560Z,9.90
2018-01-01T01:37:15.553Z,8.50
2018-01-01T01:38:15.546Z,8.20
2018-01-01T01:39:15.538Z,8.40
2018-01-01T01:40:15.536Z,7.10
2018-01-01T01:41:15.533Z,7.30
2018-01-01T01:42:15.525Z,7.60
2018-01-01T01:43:15.518Z,10.00
2018-01-01T01:44:15.509Z,7.80
2018-01-01T01:45:15.509Z,7.00
2018-01-01T01:46:15.502Z,7.40
2018-01-01T01:47:15.496Z,7.00
2018-01-01T01:48:15.486Z,8.30
2018-01-01T01:49:15.483Z,7.10
2018-01-01T01:50:15.477Z,8.80
2018-01-01T01:51:15.472Z,6.20
2018-01-01T01:52:15.467Z,7.60
2018-01-01T01:53:15.460Z,7.00
2018-01-01T01:54:15.452Z,6.60
2018-01-01T01:55:15.450Z,9.40
2018-01-01T01:56:15.443Z,8.20
2018-01-01T01:57:15.430Z,9.00
2018-01-01T01:58:15.432Z,8.70
2018-01-01T01:59:15.426Z,7.40
2018-01-01T02:00:15.422Z,10.80
2018-01-01T02:01:15.412Z,7.30
2018-01-01T02:02:15.406Z,7.80
2018-01-01T02:03:15.400Z,8.40
2018-01-01T02:04:15.395Z,8.10
2018-01-01T02:05:15.389Z,8.10
2018-01-01T02:06:15.407Z,9.90
2018-01-01T02:07:15.378Z,7.70
2018-01-01T02:08:15.373Z,7.50
2018-01-01T02:09:15.367Z,6.20
2018-01-01T02:10:15.359Z,9.00
2018-01-01T02:11:15.356Z,6.60
2018-01-01T02:12:15.350Z,7.60
2018-01-01T02:13:15.345Z,8.60
2018-01-01T02:14:15.336Z,7.10
2018-01-01T02:15:15.331Z,7.60
2018-01-01T02:16:15.328Z,7.40
2018-01-01T02:17:15.324Z,8.40
2018-01-01T02:18:15.318Z,8.40
2018-01-01T02:19:15.314Z,6.80
2018-01-01T02:20:15.301Z,6.40
2018-01-01T02:21:15.300Z,5.80
2018-01-01T02:22:15.296Z,7.90
2018-01-01T02:23:15.292Z,7.90
2018-01-01T02:24:15.283Z,5.60
2018-01-01T02:25:15.276Z,8.00
2018-01-01T02:26:15.274Z,6.70
2018-01-01T02:27:15.268Z,7.90
2018-01-01T02:28:15.263Z,6.60
2018-01-01T02:29:15.255Z,8.40
2018-01-01T02:30:15.253Z,8.00
2018-01-01T02:31:15.247Z,5.30
2018-01-01T02:32:15.243Z,7.80
2018-01-01T02:33:15.237Z,5.70
2018-01-01T02:34:15.233Z,8.50
2018-01-01T02:35:15.227Z,8.40
2018-01-01T02:36:15.221Z,7.50
2018-01-01T02:37:15.214Z,7.40
2018-01-01T02:38:15.209Z,6.10
2018-01-01T02:39:15.204Z,7.00
2018-01-01T02:40:15.200Z,8.70
2018-01-01T02:41:15.193Z,7.90
2018-01-01T02:42:15.193Z,6.70
2018-01-01T02:43:15.184Z,8.10
2018-01-01T02:44:15.172Z,8.50
2018-01-01T02:45:15.169Z,6.70
2018-01-01T02:46:15.160Z,7.20
2018-01-01T02:47:15.158Z,7.80
2018-01-01T02:48:15.153Z,6.90
2018-01-01T02:49:15.148Z,9.60
2018-01-01T02:50:15.140Z,7.50
2018-01-01T02:51:15.144Z,7.80
2018-01-01T02:52:15.131Z,9.10
2018-01-01T02:53:15.124Z,7.50
2018-01-01T02:54:15.119Z,7.30
2018-01-01T02:55:15.125Z,6.00
2018-01-01T02:56:15.106Z,7.70
2018-01-01T02:57:15.103Z,7.30
2018-01-01T02:58:15.098Z,7.40
2018-01-01T02:59:15.092Z,8.80
2018-01-01T03:00:15.084Z,7.80
2018-01-01T03:01:15.081Z,8.30
2018-01-01T03:02:15.076Z,6.90
2018-01-01T03:03:15.070Z,6.40
2018-01-01T03:04:15.065Z,7.90
2018-01-01T03:05:15.058Z,8.00
2018-01-01T03:06:15.049Z,6.30
2018-01-01T03:07:15.048Z,8.70
2018-01-01T03:08:15.043Z,8.00
2018-01-01T03:09:15.035Z,7.10
2018-01-01T03:10:15.642Z,4.80
2018-01-01T03:11:15.027Z,7.50
2018-01-01T03:12:15.018Z,5.10
2018-01-01T03:13:15.012Z,4.30
2018-01-01T03:14:15.019Z,8.70
2018-01-01T03:15:15.001Z,6.90
2018-01-01T03:16:14.995Z,6.10
2018-01-01T03:17:14.991Z,6.80
2018-01-01T03:18:14.982Z,5.60
2018-01-01T03:19:14.986Z,7.90
2018-01-01T03:20:14.969Z,6.50
2018-01-01T03:21:14.968Z,9.80
2018-01-01T03:22:14.960Z,7.80
2018-01-01T03:23:14.954Z,8.90
2018-01-01T03:24:14.952Z,6.40
2018-01-01T03:25:14.944Z,8.10
2018-01-01T03:26:14.932Z,5.30
2018-01-01T03:27:14.932Z,8.70
2018-01-01T03:28:14.923Z,7.30
2018-01-01T03:29:14.921Z,7.30
2018-01-01T03:30:14.914Z,9.40
2018-01-01T03:31:14.904Z,8.60
2018-01-01T03:32:14.901Z,7.10
2018-01-01T03:33:14.896Z,11.30
2018-01-01T03:34:14.890Z,7.70
2018-01-01T03:35:14.894Z,7.40
2018-01-01T03:36:14.876Z,8.60
2018-01-01T03:37:14.873Z,8.70
2018-01-01T03:38:14.864Z,7.50
2018-01-01T03:39:14.859Z,9.00
2018-01-01T03:40:14.853Z,9.30
2018-01-01T03:41:14.844Z,8.60
2018-01-01T03:42:14.844Z,8.50
2018-01-01T03:43:14.836Z,6.60
2018-01-01T03:44:14.828Z,7.60
2018-01-01T03:45:14.830Z,7.40
2018-01-01T03:46:14.818Z,11.30
2018-01-01T03:47:14.814Z,9.80
2018-01-01T03:48:14.803Z,8.70
2018-01-01T03:49:14.798Z,7.20
2018-01-01T03:50:14.791Z,9.60
2018-01-01T03:51:14.784Z,8.50
2018-01-01T03:52:14.779Z,7.20
2018-01-01T03:53:14.770Z,10.50
2018-01-01T03:54:14.765Z,7.20
2018-01-01T03:55:14.758Z,11.20
2018-01-01T03:56:14.753Z,5.90
2018-01-01T03:57:14.749Z,10.20
2018-01-01T03:58:14.740Z,9.80
2018-01-01T03:59:14.736Z,11.00
2018-01-01T04:00:14.729Z,9.20
2018-01-01T04:01:14.718Z,11.90
2018-01-01T04:02:14.716Z,8.40
2018-01-01T04:03:14.710Z,12.00
2018-01-01T04:04:14.702Z,10.20
2018-01-01T04:05:14.696Z,8.60
2018-01-01T04:06:14.690Z,10.00
2018-01-01T04:07:14.681Z,6.90
2018-01-01T04:08:14.678Z,8.60
2018-01-01T04:09:14.669Z,11.30
2018-01-01T04:10:14.661Z,9.50
2018-01-01T04:11:14.655Z,11.10
2018-01-01T04:12:14.650Z,9.80
2018-01-01T04:13:14.641Z,7.80
2018-01-01T04:14:14.633Z,9.20
2018-01-01T04:15:14.628Z,8.80
2018-01-01T04:16:14.621Z,11.10
2018-01-01T04:17:14.615Z,8.00
2018-01-01T04:18:14.606Z,8.20
2018-01-01T04:19:14.602Z,8.70
2018-01-01T04:20:14.594Z,9.30
2018-01-01T04:21:14.584Z,6.90
2018-01-01T04:22:14.576Z,8.40
2018-01-01T04:23:14.572Z,6.00
2018-01-01T04:24:14.564Z,7.50
2018-01-01T04:25:14.557Z,7.70
2018-01-01T04:26:14.549Z,8.80
2018-01-01T04:27:14.545Z,9.90
2018-01-01T04:28:14.539Z,8.80
2018-01-01T04:29:14.528Z,10.50
2018-01-01T04:30:14.525Z,9.40
2018-01-01T04:31:14.514Z,8.60
2018-01-01T04:32:14.507Z,10.60
2018-01-01T04:33:14.502Z,11.00
2018-01-01T04:34:14.497Z,9.30
2018-01-01T04:35:14.491Z,11.90
2018-01-01T04:36:14.484Z,10.60
2018-01-01T04:37:14.473Z,8.70
2018-01-01T04:38:14.467Z,14.70
2018-01-01T04:39:14.462Z,8.40
2018-01-01T04:40:14.452Z,7.30
2018-01-01T04:41:14.449Z,11.00
2018-01-01T04:42:14.439Z,8.60
2018-01-01T04:43:14.436Z,10.20
2018-01-01T04:44:14.429Z,8.10
2018-01-01T04:45:14.420Z,9.80
2018-01-01T04:46:14.415Z,7.10
2018-01-01T04:47:14.415Z,7.40
2018-01-01T04:48:14.399Z,9.70
2018-01-01T04:49:14.405Z,6.90
2018-01-01T04:50:14.388Z,5.00
2018-01-01T04:51:14.381Z,7.20
2018-01-01T04:52:14.375Z,7.80
2018-01-01T04:53:14.368Z,9.10
2018-01-01T04:54:14.362Z,10.90
2018-01-01T04:55:14.355Z,10.20
2018-01-01T04:56:14.350Z,10.00
2018-01-01T04:57:14.343Z,9.10
2018-01-01T04:58:14.348Z,10.50
2018-01-01T04:59:14.324Z,8.90
2018-01-01T05:00:14.322Z,8.50
2018-01-01T05:01:14.310Z,11.00
2018-01-01T05:02:14.313Z,9.60
2018-01-01T05:03:14.299Z,8.80
2018-01-01T05:04:14.297Z,7.50
2018-01-01T05:05:14.291Z,10.60
2018-01-01T05:06:14.284Z,8.30
2018-01-01T05:07:14.276Z,9.40
2018-01-01T05:08:14.271Z,13.00
2018-01-01T05:09:14.267Z,12.60
2018-01-01T05:10:14.262Z,9.90
2018-01-01T05:11:14.252Z,9.50
2018-01-01T05:12:14.255Z,9.30
2018-01-01T05:13:14.238Z,10.80
2018-01-01T05:14:14.235Z,10.10
2018-01-01T05:15:14.224Z,8.50
2018-01-01T05:16:14.220Z,7.60
2018-01-01T05:17:14.211Z,9.20
2018-01-01T05:18:14.215Z,7.20
2018-01-01T05:19:14.196Z,11.90
2018-01-01T05:20:14.202Z,8.00
2018-01-01T05:21:14.189Z,7.60
2018-01-01T05:22:14.181Z,8.60
2018-01-01T05:23:14.170Z,7.40
2018-01-01T05:24:14.163Z,13.30
2018-01-01T05:25:14.156Z,9.00
2018-01-01T05:26:14.149Z,7.70
2018-01-01T05:27:14.142Z,6.30
2018-01-01T05:28:14.132Z,7.60
2018-01-01T05:29:14.123Z,7.50
2018-01-01T05:30:14.116Z,7.80
2018-01-01T05:31:14.110Z,5.80
2018-01-01T05:32:14.100Z,6.40
2018-01-01T05:33:14.111Z,4.30
2018-01-01T05:34:14.090Z,5.50
2018-01-01T05:35:14.085Z,5.60
2018-01-01T05:36:14.077Z,5.80
2018-01-01T05:37:14.068Z,5.20
2018-01-01T05:38:14.063Z,2.80
2018-01-01T05:39:14.053Z,4.50
2018-01-01T05:40:14.049Z,4.90
2018-01-01T05:41:14.040Z,4.10
2018-01-01T05:42:14.032Z,4.00
2018-01-01T05:43:14.026Z,3.10
2018-01-01T05:44:14.019Z,4.50
2018-01-01T05:45:14.010Z,2.80
2018-01-01T05:46:14.000Z,6.10
2018-01-01T05:47:13.998Z,4.40
2018-01-01T05:48:13.990Z,4.90
2018-01-01T05:49:13.980Z,3.40
2018-01-01T05:50:13.973Z,2.40
2018-01-01T05:51:13.967Z,3.10
2018-01-01T05:52:13.960Z,2.70
2018-01-01T05:53:13.950Z,3.30
2018-01-01T05:54:13.941Z,3.80
2018-01-01T05:55:13.935Z,4.00
2018-01-01T05:56:13.928Z,3.00
2018-01-01T05:57:13.920Z,5.00
2018-01-01T05:58:13.913Z,3.00
2018-01-01T05:59:13.906Z,2.60
2018-01-01T06:00:13.896Z,3.70
2018-01-01T06:01:13.889Z,3.30
2018-01-01T06:02:13.894Z,4.40
2018-01-01T06:03:13.877Z,3.80
2018-01-01T06:04:13.870Z,2.50
2018-01-01T06:05:13.862Z,2.30
2018-01-01T06:06:13.871Z,2.70
2018-01-01T06:07:13.849Z,3.70
2018-01-01T06:08:13.840Z,2.90
2018-01-01T06:09:13.835Z,4.00
2018-01-01T06:10:13.825Z,2.10
2018-01-01T06:11:13.819Z,1.80
2018-01-01T06:12:13.812Z,3.90
2018-01-01T06:13:13.804Z,2.20
2018-01-01T06:14:13.795Z,4.20
2018-01-01T06:15:13.789Z,2.60
2018-01-01T06:16:13.781Z,3.00
2018-01-01T06:17:13.773Z,2.60
2018-01-01T06:18:13.767Z,2.60
2018-01-01T06:19:13.761Z,3.20
2018-01-01T06:20:13.751Z,2.00
2018-01-01T06:21:13.746Z,2.50
2018-01-01T06:22:13.737Z,2.90
2018-01-01T06:23:13.730Z,2.00
2018-01-01T06:24:13.725Z,2.60
2018-01-01T06:25:13.717Z,2.20
2018-01-01T06:26:13.708Z,2.30
2018-01-01T06:27:13.704Z,2.80
2018-01-01T06:28:13.699Z,2.90
2018-01-01T06:29:13.687Z,3.30
2018-01-01T06:30:13.680Z,2.60
2018-01-01T06:31:13.673Z,2.80
2018-01-01T06:32:13.666Z,2.10
2018-01-01T06:33:13.658Z,2.60
2018-01-01T06:34:13.651Z,2.60
2018-01-01T06:35:13.642Z,5.10
2018-01-01T06:36:13.642Z,3.40
2018-01-01T06:37:13.629Z,2.30
2018-01-01T06:38:13.620Z,3.90
2018-01-01T06:39:13.615Z,6.70
2018-01-01T06:40:13.610Z,3.20
2018-01-01T06:41:13.599Z,3.40
2018-01-01T06:42:13.597Z,3.30
2018-01-01T06:43:13.588Z,5.20
2018-01-01T06:44:13.581Z,3.20
2018-01-01T06:45:13.575Z,4.40
2018-01-01T06:46:13.568Z,4.00
2018-01-01T06:47:13.559Z,4.60
2018-01-01T06:48:13.555Z,5.80
2018-01-01T06:49:13.545Z,4.90
2018-01-01T06:50:13.539Z,5.30
2018-01-01T06:51:13.531Z,5.10
2018-01-01T06:52:13.528Z,4.80
2018-01-01T06:53:13.514Z,4.70
2018-01-01T06:54:13.515Z,4.50
2018-01-01T06:55:13.503Z,6.40
2018-01-01T06:56:13.502Z,4.70
2018-01-01T06:57:13.494Z,5.30
2018-01-01T06:58:13.483Z,5.40
2018-01-01T06:59:13.476Z,4.30
2018-01-01T07:00:13.470Z,4.80
2018-01-01T07:01:13.466Z,6.00
2018-01-01T07:02:13.453Z,5.90
2018-01-01T07:03:13.452Z,4.80
2018-01-01T07:04:13.445Z,4.40
2018-01-01T07:05:13.436Z,4.60
2018-01-01T07:06:13.427Z,5.90
2018-01-01T07:07:13.421Z,5.40
2018-01-01T07:08:13.413Z,6.50
2018-01-01T07:09:13.406Z,5.20
2018-01-01T07:10:13.398Z,4.10
2018-01-01T07:11:13.391Z,3.70
2018-01-01T07:12:13.386Z,4.80
2018-01-01T07:13:13.377Z,5.60
2018-01-01T07:14:13.375Z,5.30
2018-01-01T07:15:13.362Z,4.40
2018-01-01T07:16:13.355Z,4.30
2018-01-01T07:17:13.348Z,5.10
2018-01-01T07:18:13.341Z,5.70
2018-01-01T07:19:13.333Z,4.50
2018-01-01T07:20:13.326Z,4.90
2018-01-01T07:21:13.317Z,5.00
2018-01-01T07:22:13.310Z,4.30
2018-01-01T07:23:13.305Z,4.00
2018-01-01T07:24:13.298Z,3.20
2018-01-01T07:25:13.289Z,3.50
2018-01-01T07:26:13.280Z,4.50
2018-01-01T07:27:14.240Z,4.80
2018-01-01T07:28:13.271Z,3.20
2018-01-01T07:29:13.260Z,5.50
2018-01-01T07:30:13.256Z,3.40
2018-01-01T07:31:13.246Z,5.70
2018-01-01T07:32:13.242Z,3.50
2018-01-01T07:33:13.231Z,4.40
2018-01-01T07:34:13.228Z,4.70
2018-01-01T07:35:13.215Z,2.60
2018-01-01T07:36:13.211Z,5.30
2018-01-01T07:37:13.204Z,3.40
2018-01-01T07:38:13.194Z,2.80
2018-01-01T07:39:13.189Z,3.40
2018-01-01T07:40:13.186Z,3.20
2018-01-01T07:41:13.174Z,2.80
2018-01-01T07:42:13.210Z,4.10
2018-01-01T07:43:13.160Z,2.60
2018-01-01T07:44:13.153Z,3.10
2018-01-01T07:45:13.148Z,4.40
2018-01-01T07:46:13.140Z,3.30
2018-01-01T07:47:13.136Z,4.40
2018-01-01T07:48:13.127Z,3.60
2018-01-01T07:49:13.121Z,3.30
2018-01-01T07:50:13.116Z,4.40
2018-01-01T07:51:13.105Z,2.90
2018-01-01T07:52:13.101Z,2.40
2018-01-01T07:53:13.090Z,2.90
2018-01-01T07:54:13.085Z,3.20
2018-01-01T07:55:13.079Z,3.80
2018-01-01T07:56:13.074Z,4.70
2018-01-01T07:57:13.064Z,5.20
2018-01-01T07:58:13.060Z,2.70
2018-01-01T07:59:13.058Z,3.40
2018-01-01T08:00:13.048Z,5.30
2018-01-01T08:01:13.042Z,5.10
2018-01-01T08:02:13.039Z,4.80
2018-01-01T08:03:13.026Z,5.20
2018-01-01T08:04:13.020Z,4.30
2018-01-01T08:05:13.016Z,4.00
2018-01-01T08:06:13.012Z,5.60
2018-01-01T08:07:13.006Z,3.60
2018-01-01T08:08:12.998Z,4.20
2018-01-01T08:09:12.998Z,4.00
2018-01-01T08:10:12.998Z,6.00
2018-01-01T08:11:12.988Z,5.30
2018-01-01T08:12:12.987Z,9.10
2018-01-01T08:13:12.966Z,8.10
2018-01-01T08:14:12.966Z,8.40
2018-01-01T08:15:12.971Z,6.60
2018-01-01T08:16:12.968Z,4.90
2018-01-01T08:17:12.940Z,6.60
2018-01-01T08:18:12.937Z,5.10
2018-01-01T08:19:12.930Z,7.10
2018-01-01T08:20:13.786Z,6.50
2018-01-01T08:21:12.917Z,4.50
2018-01-01T08:22:12.904Z,5.20
2018-01-01T08:23:12.906Z,6.30
2018-01-01T08:24:12.899Z,5.40
2018-01-01T08:25:12.892Z,7.10
2018-01-01T08:26:12.886Z,6.60
2018-01-01T08:27:12.879Z,6.80
2018-01-01T08:28:12.873Z,7.80
2018-01-01T08:29:12.873Z,6.30
2018-01-01T08:30:13.717Z,6.30
2018-01-01T08:31:12.864Z,5.60
2018-01-01T08:32:12.866Z,6.10
2018-01-01T08:33:12.844Z,7.00
2018-01-01T08:34:12.834Z,6.10
2018-01-01T08:35:13.788Z,7.50
2018-01-01T08:36:12.826Z,6.40
2018-01-01T08:37:12.815Z,4.40
2018-01-01T08:38:12.810Z,6.50
2018-01-01T08:39:12.795Z,5.40
2018-01-01T08:40:12.798Z,6.60
2018-01-01T08:41:12.793Z,6.40
2018-01-01T08:42:12.785Z,7.20
2018-01-01T08:43:12.783Z,6.00
2018-01-01T08:44:12.774Z,7.10
2018-01-01T08:45:12.768Z,5.70
2018-01-01T08:46:12.765Z,7.30
2018-01-01T08:47:12.757Z,3.70
2018-01-01T08:48:12.748Z,6.20
2018-01-01T08:49:12.748Z,6.70
2018-01-01T08:50:12.751Z,7.70
2018-01-01T08:51:12.740Z,6.50
2018-01-01T08:52:12.729Z,5.70
2018-01-01T08:53:12.717Z,5.40
2018-01-01T08:54:12.717Z,5.50
2018-01-01T08:55:12.712Z,8.80
2018-01-01T08:56:12.699Z,8.60
2018-01-01T08:57:12.697Z,7.20
2018-01-01T08:58:12.684Z,6.90
2018-01-01T08:59:12.726Z,6.10
2018-01-01T09:00:12.675Z,8.50
2018-01-01T09:01:12.667Z,6.40
2018-01-01T09:02:13.221Z,7.10
2018-01-01T09:03:12.655Z,6.70
2018-01-01T09:04:12.649Z,7.80
2018-01-01T09:05:12.643Z,7.50
2018-01-01T09:06:12.637Z,7.30
2018-01-01T09:07:12.628Z,7.50
2018-01-01T09:08:12.629Z,9.80
2018-01-01T09:09:12.620Z,9.80
2018-01-01T09:10:12.616Z,6.90
2018-01-01T09:11:12.599Z,8.30
2018-01-01T09:12:12.600Z,10.80
2018-01-01T09:13:12.594Z,9.40
2018-01-01T09:14:12.586Z,7.00
2018-01-01T09:15:12.580Z,10.40
2018-01-01T09:16:12.575Z,8.30
2018-01-01T09:17:12.569Z,8.30
2018-01-01T09:18:12.561Z,8.80
2018-01-01T09:19:12.555Z,6.80
2018-01-01T09:20:12.543Z,7.10
2018-01-01T09:21:12.540Z,8.40
2018-01-01T09:22:12.535Z,9.10
2018-01-01T09:23:12.528Z,7.90
2018-01-01T09:24:12.525Z,8.30
2018-01-01T09:25:12.514Z,8.70
2018-01-01T09:26:12.510Z,7.40
2018-01-01T09:27:12.524Z,9.00
2018-01-01T09:28:12.495Z,7.50
2018-01-01T09:29:12.490Z,7.90
2018-01-01T09:30:12.484Z,7.00
2018-01-01T09:31:12.476Z,7.10
2018-01-01T09:32:12.473Z,8.10
2018-01-01T09:33:12.466Z,9.00
2018-01-01T09:34:12.460Z,8.80
2018-01-01T09:35:12.454Z,10.60
2018-01-01T09:36:12.448Z,9.70
2018-01-01T09:37:12.442Z,7.00
2018-01-01T09:38:12.436Z,8.70
2018-01-01T09:39:12.431Z,10.80
2018-01-01T09:40:12.427Z,9.40
2018-01-01T09:41:12.418Z,7.90
2018-01-01T09:42:12.414Z,10.30
2018-01-01T09:43:12.411Z,8.30
2018-01-01T09:44:12.402Z,8.30
2018-01-01T09:45:12.395Z,9.50
2018-01-01T09:46:12.391Z,7.60
2018-01-01T09:47:12.384Z,8.80
2018-01-01T09:48:12.380Z,9.80
2018-01-01T09:49:12.373Z,8.70
2018-01-01T09:50:12.366Z,9.70
2018-01-01T09:51:12.362Z,12.20
2018-01-01T09:52:12.357Z,8.80
2018-01-01T09:53:12.351Z,12.30
2018-01-01T09:54:12.343Z,7.10
2018-01-01T09:55:12.337Z,7.20
2018-01-01T09:56:12.334Z,8.90
2018-01-01T09:57:12.327Z,8.60
2018-01-01T09:58:12.320Z,10.30
2018-01-01T09:59:12.326Z,7.30
2018-01-01T10:00:12.308Z,8.90
2018-01-01T10:01:12.302Z,9.90
2018-01-01T10:02:12.296Z,10.50
2018-01-01T10:03:12.290Z,8.40
2018-01-01T10:04:12.288Z,8.40
2018-01-01T10:05:12.282Z,10.80
2018-01-01T10:06:12.273Z,10.20
2018-01-01T10:07:12.269Z,8.60
2018-01-01T10:08:12.262Z,10.30
2018-01-01T10:09:12.255Z,11.30
2018-01-01T10:10:12.247Z,8.90
2018-01-01T10:11:12.243Z,6.50
2018-01-01T10:12:12.239Z,8.70
2018-01-01T10:13:12.234Z,9.80
2018-01-01T10:14:12.226Z,9.60
2018-01-01T10:15:12.220Z,8.60
2018-01-01T10:16:12.209Z,6.50
2018-01-01T10:17:12.204Z,9.40
2018-01-01T10:18:12.197Z,9.30
2018-01-01T10:19:12.189Z,8.60
2018-01-01T10:20:12.185Z,8.30
2018-01-01T10:21:12.179Z,9.30
2018-01-01T10:22:12.171Z,7.50
2018-01-01T10:23:12.166Z,7.20
2018-01-01T10:24:12.159Z,8.60
2018-01-01T10:25:12.150Z,8.70
2018-01-01T10:26:12.146Z,8.80
2018-01-01T10:27:12.143Z,9.20
2018-01-01T10:28:12.130Z,11.10
2018-01-01T10:29:12.123Z,8.40
2018-01-01T10:30:12.118Z,8.50
2018-01-01T10:31:12.112Z,10.50
2018-01-01T10:32:12.108Z,9.60
2018-01-01T10:33:12.097Z,11.00
2018-01-01T10:34:12.094Z,10.00
2018-01-01T10:35:12.085Z,6.40
2018-01-01T10:36:12.081Z,8.30
2018-01-01T10:37:12.075Z,7.10
2018-01-01T10:38:12.066Z,4.40
2018-01-01T10:39:12.060Z,6.80
2018-01-01T10:40:12.053Z,7.80
2018-01-01T10:41:12.045Z,6.20
2018-01-01T10:42:12.037Z,5.30
2018-01-01T10:43:12.033Z,6.10
2018-01-01T10:44:12.024Z,6.40
2018-01-01T10:45:12.018Z,6.80
2018-01-01T10:46:12.012Z,5.90
2018-01-01T10:48:11.997Z,5.80
2018-01-01T10:49:11.995Z,6.20
2018-01-01T10:50:11.983Z,6.20
2018-01-01T10:51:11.981Z,5.60
2018-01-01T10:52:11.974Z,4.10
2018-01-01T10:53:11.963Z,5.60
2018-01-01T10:54:32.964Z,5.20
2018-01-01T10:55:11.949Z,4.30
2018-01-01T10:56:11.944Z,4.40
2018-01-01T10:57:11.934Z,5.40
2018-01-01T10:58:11.925Z,4.30
2018-01-01T10:59:11.921Z,2.70
2018-01-01T11:00:32.920Z,4.60
2018-01-01T11:01:11.907Z,3.60
2018-01-01T11:02:11.899Z,2.60
2018-01-01T11:03:11.896Z,4.00
2018-01-01T11:04:11.888Z,3.60
2018-01-01T11:05:12.760Z,3.10
2018-01-01T11:06:32.877Z,4.30
2018-01-01T11:07:11.867Z,3.10
2018-01-01T11:08:11.858Z,1.80
2018-01-01T11:09:11.851Z,3.40
2018-01-01T11:10:11.844Z,2.30
2018-01-01T11:11:11.838Z,3.30
2018-01-01T11:12:32.837Z,5.60
2018-01-01T11:13:11.823Z,2.90
2018-01-01T11:14:11.817Z,3.70
2018-01-01T11:15:11.811Z,3.60
2018-01-01T11:16:11.804Z,3.70
2018-01-01T11:17:11.798Z,4.00
2018-01-01T11:18:33.761Z,4.70
2018-01-01T11:19:11.783Z,3.30
2018-01-01T11:20:11.778Z,3.40
2018-01-01T11:21:11.770Z,5.70
2018-01-01T11:22:11.765Z,3.70
2018-01-01T11:23:11.760Z,6.90
2018-01-01T11:24:32.762Z,5.20
2018-01-01T11:25:11.752Z,4.20
2018-01-01T11:26:11.743Z,6.70
2018-01-01T11:27:11.739Z,5.60
2018-01-01T11:28:11.729Z,5.00
2018-01-01T11:29:11.723Z,3.80
2018-01-01T11:30:32.725Z,4.40
2018-01-01T11:31:11.716Z,4.90
2018-01-01T11:32:11.707Z,6.20
2018-01-01T11:33:11.703Z,7.40
2018-01-01T11:34:11.690Z,7.40
2018-01-01T11:35:11.692Z,6.70
2018-01-01T11:36:32.689Z,5.00
2018-01-01T11:37:11.673Z,8.60
2018-01-01T11:38:11.671Z,5.70
2018-01-01T11:39:11.661Z,7.80
2018-01-01T11:40:11.660Z,7.10
2018-01-01T11:41:11.651Z,6.30
2018-01-01T11:42:32.652Z,8.20
2018-01-01T11:43:11.640Z,7.30
2018-01-01T11:44:11.633Z,6.40
2018-01-01T11:45:11.626Z,9.00
2018-01-01T11:46:11.629Z,6.10
2018-01-01T11:47:11.613Z,7.90
2018-01-01T11:48:32.612Z,5.80
2018-01-01T11:49:11.600Z,6.90
2018-01-01T11:50:11.596Z,6.20
2018-01-01T11:51:11.592Z,8.50
2018-01-01T11:52:11.588Z,7.20
2018-01-01T11:53:11.581Z,8.00
2018-01-01T11:54:32.576Z,6.60
2018-01-01T11:55:11.564Z,4.50
2018-01-01T11:56:11.558Z,9.20
2018-01-01T11:57:11.555Z,8.00
2018-01-01T11:58:11.545Z,5.40
2018-01-01T11:59:11.540Z,7.40
2018-01-01T12:00:32.540Z,6.60
2018-01-01T12:01:11.525Z,4.60
2018-01-01T12:02:11.516Z,6.60
2018-01-01T12:03:11.514Z,4.80
2018-01-01T12:04:11.505Z,6.00
2018-01-01T12:05:11.499Z,5.10
2018-01-01T12:06:32.500Z,4.70
2018-01-01T12:07:11.486Z,6.40
2018-01-01T12:08:11.481Z,7.30
2018-01-01T12:09:11.471Z,6.70
2018-01-01T12:10:11.467Z,6.80
2018-01-01T12:11:11.461Z,6.40
2018-01-01T12:12:33.276Z,6.10
2018-01-01T12:13:11.450Z,5.70
2018-01-01T12:14:11.438Z,8.60
2018-01-01T12:15:11.435Z,4.70
2018-01-01T12:16:11.432Z,5.40
2018-01-01T12:17:11.421Z,7.10
2018-01-01T12:18:32.418Z,10.30
2018-01-01T12:19:11.410Z,7.30
2018-01-01T12:20:12.277Z,6.70
2018-01-01T12:21:11.400Z,6.60
2018-01-01T12:22:11.392Z,7.00
2018-01-01T12:23:11.387Z,6.70
2018-01-01T12:24:32.390Z,7.80
2018-01-01T12:25:11.371Z,5.80
2018-01-01T12:26:11.368Z,8.30
2018-01-01T12:27:11.358Z,8.20
2018-01-01T12:28:11.356Z,5.10
2018-01-01T12:29:11.346Z,10.10
2018-01-01T12:30:32.349Z,7.70
2018-01-01T12:31:11.336Z,8.70
2018-01-01T12:32:11.330Z,8.20
2018-01-01T12:33:11.328Z,7.50
2018-01-01T12:34:11.321Z,8.90
2018-01-01T12:35:11.316Z,7.60
2018-01-01T12:36:32.317Z,5.30
2018-01-01T12:37:11.304Z,8.30
2018-01-01T12:38:11.298Z,8.50
2018-01-01T12:39:11.292Z,6.90
2018-01-01T12:40:11.287Z,7.20
2018-01-01T12:41:11.279Z,7.40
2018-01-01T12:42:32.283Z,9.50
2018-01-01T12:43:11.278Z,9.40
2018-01-01T12:44:11.268Z,10.10
2018-01-01T12:45:11.257Z,7.40
2018-01-01T12:46:11.256Z,7.80
2018-01-01T12:47:11.252Z,7.20
2018-01-01T12:48:32.254Z,10.60
2018-01-01T12:49:11.238Z,9.10
2018-01-01T12:50:11.231Z,8.10
2018-01-01T12:51:11.226Z,8.50
2018-01-01T12:52:11.223Z,9.70
2018-01-01T12:53:11.218Z,11.90
2018-01-01T12:54:32.218Z,10.70
2018-01-01T12:55:11.206Z,10.10
2018-01-01T12:56:11.204Z,7.50
2018-01-01T12:57:11.195Z,8.90
2018-01-01T12:58:11.190Z,8.20
2018-01-01T12:59:11.187Z,9.20
2018-01-01T13:00:32.189Z,8.90
2018-01-01T13:01:11.171Z,9.00
2018-01-01T13:02:11.170Z,8.80
2018-01-01T13:03:11.167Z,8.30
2018-01-01T13:04:11.160Z,10.80
2018-01-01T13:05:11.153Z,11.80
2018-01-01T13:06:32.154Z,9.70
2018-01-01T13:07:11.139Z,11.30
2018-01-01T13:08:11.139Z,9.10
2018-01-01T13:09:11.133Z,11.90
2018-01-01T13:10:11.149Z,12.00
2018-01-01T13:11:11.118Z,10.30
2018-01-01T13:12:32.122Z,10.40
2018-01-01T13:13:11.110Z,9.60
2018-01-01T13:14:11.103Z,9.20
2018-01-01T13:15:11.099Z,9.80
2018-01-01T13:16:11.095Z,12.10
2018-01-01T13:17:11.088Z,9.70